Авиационная погода в Уфе

Регион: 
Погода METAR: 
UWUU 241700Z VRB01MPS CAVOK 04/02 Q1011 R14R/290146 NOSIG
Время наблюдения
2021-10-24T17:00:00Z
Температура C
4.0
Точка росы
2.0
Направление ветра
0
Скорость ветра (узлы)
2
Метео видимость
6.21
Явления погоды
Условия полета
VFR
Аэропорт подробнее: